sensor_id;sensor_type;location;lat;lon;timestamp;pressure;altitude;pressure_sealevel;temperature;humidity
31331;BME280;34067;39.548;-76.088;2022-09-23T00:00:56;100710.21;;;16.50;44.91
31331;BME280;34067;39.548;-76.088;2022-09-23T00:03:25;100708.49;;;15.71;46.33
31331;BME280;34067;39.548;-76.088;2022-09-23T00:05:57;100717.79;;;16.21;45.48
31331;BME280;34067;39.548;-76.088;2022-09-23T00:08:25;100751.99;;;16.19;45.61
31331;BME280;34067;39.548;-76.088;2022-09-23T00:10:54;100708.42;;;15.56;48.63
31331;BME280;34067;39.548;-76.088;2022-09-23T00:13:22;100740.91;;;15.89;46.94
31331;BME280;34067;39.548;-76.088;2022-09-23T00:15:50;100722.21;;;14.96;49.55
31331;BME280;34067;39.548;-76.088;2022-09-23T00:18:18;100741.31;;;14.84;49.84
31331;BME280;34067;39.548;-76.088;2022-09-23T00:20:46;100777.56;;;14.76;48.98
31331;BME280;34067;39.548;-76.088;2022-09-23T00:23:14;100760.76;;;15.61;49.54
31331;BME280;34067;39.548;-76.088;2022-09-23T00:25:42;100778.54;;;15.51;48.96
31331;BME280;34067;39.548;-76.088;2022-09-23T00:28:10;100780.96;;;15.28;50.31
31331;BME280;34067;39.548;-76.088;2022-09-23T00:30:40;100748.47;;;15.31;53.16
31331;BME280;34067;39.548;-76.088;2022-09-23T00:33:07;100781.79;;;14.67;53.04
31331;BME280;34067;39.548;-76.088;2022-09-23T00:35:35;100800.78;;;15.11;51.61
31331;BME280;34067;39.548;-76.088;2022-09-23T00:38:03;100804.38;;;14.65;53.32
31331;BME280;34067;39.548;-76.088;2022-09-23T00:40:32;100837.59;;;14.65;52.94
31331;BME280;34067;39.548;-76.088;2022-09-23T00:42:59;100831.55;;;15.04;52.79
31331;BME280;34067;39.548;-76.088;2022-09-23T00:45:27;100818.77;;;15.23;56.74
31331;BME280;34067;39.548;-76.088;2022-09-23T00:47:58;100817.54;;;15.42;52.14
31331;BME280;34067;39.548;-76.088;2022-09-23T00:50:28;100825.76;;;14.24;56.56
31331;BME280;34067;39.548;-76.088;2022-09-23T00:52:58;100840.77;;;14.67;57.93
31331;BME280;34067;39.548;-76.088;2022-09-23T00:55:31;100837.98;;;14.12;54.70
31331;BME280;34067;39.548;-76.088;2022-09-23T00:58:02;100850.37;;;14.66;55.28
31331;BME280;34067;39.548;-76.088;2022-09-23T01:00:32;100846.70;;;14.55;54.74
31331;BME280;34067;39.548;-76.088;2022-09-23T01:03:00;100839.55;;;14.94;54.97
31331;BME280;34067;39.548;-76.088;2022-09-23T01:05:29;100838.96;;;15.12;54.68
31331;BME280;34067;39.548;-76.088;2022-09-23T01:07:58;100833.14;;;15.00;54.03
31331;BME280;34067;39.548;-76.088;2022-09-23T01:10:31;100841.39;;;14.02;55.29
31331;BME280;34067;39.548;-76.088;2022-09-23T01:13:14;100826.91;;;14.66;53.57
31331;BME280;34067;39.548;-76.088;2022-09-23T01:15:50;100852.22;;;14.55;54.85
31331;BME280;34067;39.548;-76.088;2022-09-23T01:18:27;100882.98;;;14.33;55.30
31331;BME280;34067;39.548;-76.088;2022-09-23T01:21:17;100858.49;;;14.77;54.49
31331;BME280;34067;39.548;-76.088;2022-09-23T01:24:12;100871.23;;;13.80;54.81
31331;BME280;34067;39.548;-76.088;2022-09-23T01:26:54;100894.34;;;14.10;53.67
31331;BME280;34067;39.548;-76.088;2022-09-23T01:30:11;100904.30;;;14.02;53.42
31331;BME280;34067;39.548;-76.088;2022-09-23T01:33:03;100877.89;;;14.05;55.79
31331;BME280;34067;39.548;-76.088;2022-09-23T01:35:42;100899.27;;;13.47;55.09
31331;BME280;34067;39.548;-76.088;2022-09-23T01:38:21;100910.53;;;13.55;55.47
31331;BME280;34067;39.548;-76.088;2022-09-23T01:40:59;100896.75;;;13.74;55.57
31331;BME280;34067;39.548;-76.088;2022-09-23T01:43:37;100900.47;;;13.73;55.73
31331;BME280;34067;39.548;-76.088;2022-09-23T01:46:11;100911.81;;;13.39;56.15
31331;BME280;34067;39.548;-76.088;2022-09-23T01:48:48;100920.16;;;13.15;57.11
31331;BME280;34067;39.548;-76.088;2022-09-23T01:51:22;100906.92;;;13.85;56.87
31331;BME280;34067;39.548;-76.088;2022-09-23T01:53:59;100908.57;;;13.15;58.44
31331;BME280;34067;39.548;-76.088;2022-09-23T01:56:36;100919.69;;;13.24;58.66
31331;BME280;34067;39.548;-76.088;2022-09-23T01:59:11;100924.25;;;13.02;60.19
31331;BME280;34067;39.548;-76.088;2022-09-23T02:01:44;100917.69;;;13.13;66.24
31331;BME280;34067;39.548;-76.088;2022-09-23T02:04:19;100924.88;;;13.12;60.19
31331;BME280;34067;39.548;-76.088;2022-09-23T02:06:53;100933.53;;;13.78;59.15
31331;BME280;34067;39.548;-76.088;2022-09-23T02:09:24;100946.85;;;13.50;59.25
31331;BME280;34067;39.548;-76.088;2022-09-23T02:12:01;100971.53;;;13.22;59.13
31331;BME280;34067;39.548;-76.088;2022-09-23T02:14:32;100948.60;;;12.89;61.01
31331;BME280;34067;39.548;-76.088;2022-09-23T02:17:06;100963.98;;;12.96;61.91
31331;BME280;34067;39.548;-76.088;2022-09-23T02:19:42;100974.14;;;13.29;60.89
31331;BME280;34067;39.548;-76.088;2022-09-23T02:22:15;100988.69;;;12.64;60.17
31331;BME280;34067;39.548;-76.088;2022-09-23T02:24:46;100979.37;;;12.73;60.03
31331;BME280;34067;39.548;-76.088;2022-09-23T02:27:21;100982.16;;;13.98;59.25
31331;BME280;34067;39.548;-76.088;2022-09-23T02:29:56;100983.32;;;13.12;59.49
31331;BME280;34067;39.548;-76.088;2022-09-23T02:32:32;100987.95;;;13.72;58.20
31331;BME280;34067;39.548;-76.088;2022-09-23T02:35:09;100993.48;;;12.96;58.91
31331;BME280;34067;39.548;-76.088;2022-09-23T02:37:45;100997.02;;;13.24;59.10
31331;BME280;34067;39.548;-76.088;2022-09-23T02:40:19;101015.10;;;13.29;58.78
31331;BME280;34067;39.548;-76.088;2022-09-23T02:42:57;101011.78;;;13.34;59.19
31331;BME280;34067;39.548;-76.088;2022-09-23T02:45:28;101029.35;;;12.40;62.81
31331;BME280;34067;39.548;-76.088;2022-09-23T02:48:03;101029.69;;;12.52;62.84
31331;BME280;34067;39.548;-76.088;2022-09-23T02:50:33;101043.16;;;13.20;61.06
31331;BME280;34067;39.548;-76.088;2022-09-23T02:53:01;101039.74;;;13.69;59.33
31331;BME280;34067;39.548;-76.088;2022-09-23T02:55:30;101046.38;;;13.57;59.91
31331;BME280;34067;39.548;-76.088;2022-09-23T02:57:59;101044.47;;;13.32;60.53
31331;BME280;34067;39.548;-76.088;2022-09-23T03:00:37;101052.08;;;12.88;60.33
31331;BME280;34067;39.548;-76.088;2022-09-23T03:03:16;101059.04;;;12.60;60.21
31331;BME280;34067;39.548;-76.088;2022-09-23T03:05:52;101053.19;;;12.65;61.06
31331;BME280;34067;39.548;-76.088;2022-09-23T03:08:33;101057.36;;;12.78;63.47
31331;BME280;34067;39.548;-76.088;2022-09-23T03:11:06;101059.83;;;12.45;64.36
31331;BME280;34067;39.548;-76.088;2022-09-23T03:13:44;101074.66;;;11.96;64.43
31331;BME280;34067;39.548;-76.088;2022-09-23T03:16:22;101077.08;;;12.89;64.17
31331;BME280;34067;39.548;-76.088;2022-09-23T03:18:56;101090.82;;;12.36;64.28
31331;BME280;34067;39.548;-76.088;2022-09-23T03:21:32;101097.21;;;12.02;64.82
31331;BME280;34067;39.548;-76.088;2022-09-23T03:24:05;101089.45;;;11.62;66.05
31331;BME280;34067;39.548;-76.088;2022-09-23T03:26:38;101102.98;;;12.41;65.83
31331;BME280;34067;39.548;-76.088;2022-09-23T03:29:08;101097.79;;;12.82;63.99
31331;BME280;34067;39.548;-76.088;2022-09-23T03:31:39;101102.20;;;12.35;65.53
31331;BME280;34067;39.548;-76.088;2022-09-23T03:34:11;101109.82;;;13.32;65.42
31331;BME280;34067;39.548;-76.088;2022-09-23T03:36:45;101109.98;;;11.88;67.31
31331;BME280;34067;39.548;-76.088;2022-09-23T03:39:25;101104.27;;;12.65;64.53
31331;BME280;34067;39.548;-76.088;2022-09-23T03:41:57;101114.90;;;11.98;66.35
31331;BME280;34067;39.548;-76.088;2022-09-23T03:44:27;101116.22;;;11.87;66.22
31331;BME280;34067;39.548;-76.088;2022-09-23T03:46:58;101127.81;;;12.55;66.18
31331;BME280;34067;39.548;-76.088;2022-09-23T03:49:32;101125.53;;;12.25;65.73
31331;BME280;34067;39.548;-76.088;2022-09-23T03:52:02;101125.12;;;12.75;64.44
31331;BME280;34067;39.548;-76.088;2022-09-23T03:54:30;101122.43;;;12.31;64.92
31331;BME280;34067;39.548;-76.088;2022-09-23T03:56:59;101131.56;;;13.18;63.75
31331;BME280;34067;39.548;-76.088;2022-09-23T03:59:27;101127.86;;;12.65;63.13
31331;BME280;34067;39.548;-76.088;2022-09-23T04:01:56;101145.55;;;11.78;66.17
31331;BME280;34067;39.548;-76.088;2022-09-23T04:04:24;101140.66;;;12.45;64.60
31331;BME280;34067;39.548;-76.088;2022-09-23T04:06:52;101150.26;;;12.10;64.52
31331;BME280;34067;39.548;-76.088;2022-09-23T04:09:20;101162.82;;;12.50;62.42
31331;BME280;34067;39.548;-76.088;2022-09-23T04:11:48;101161.54;;;12.48;64.29
31331;BME280;34067;39.548;-76.088;2022-09-23T04:14:17;101160.59;;;12.41;64.87
31331;BME280;34067;39.548;-76.088;2022-09-23T04:16:46;101166.33;;;11.92;65.05
31331;BME280;34067;39.548;-76.088;2022-09-23T04:19:14;101175.06;;;11.40;65.09
31331;BME280;34067;39.548;-76.088;2022-09-23T04:21:44;101172.31;;;12.20;65.78
31331;BME280;34067;39.548;-76.088;2022-09-23T04:24:13;101172.89;;;12.55;64.90
31331;BME280;34067;39.548;-76.088;2022-09-23T04:26:43;101166.86;;;12.20;64.21
31331;BME280;34067;39.548;-76.088;2022-09-23T04:29:11;101174.81;;;11.99;64.84
31331;BME280;34067;39.548;-76.088;2022-09-23T04:31:39;101168.61;;;11.82;65.89
31331;BME280;34067;39.548;-76.088;2022-09-23T04:34:07;101171.07;;;12.12;64.97
31331;BME280;34067;39.548;-76.088;2022-09-23T04:36:36;101177.58;;;11.38;65.47
31331;BME280;34067;39.548;-76.088;2022-09-23T04:39:04;101181.96;;;12.23;64.99
31331;BME280;34067;39.548;-76.088;2022-09-23T04:41:32;101184.59;;;12.06;65.44
31331;BME280;34067;39.548;-76.088;2022-09-23T04:44:00;101192.09;;;12.73;64.32
31331;BME280;34067;39.548;-76.088;2022-09-23T04:46:28;101201.41;;;12.08;65.96
31331;BME280;34067;39.548;-76.088;2022-09-23T04:48:56;101192.98;;;11.64;65.56
31331;BME280;34067;39.548;-76.088;2022-09-23T04:51:25;101196.45;;;12.23;64.49
31331;BME280;34067;39.548;-76.088;2022-09-23T04:53:55;101186.28;;;11.61;65.41
31331;BME280;34067;39.548;-76.088;2022-09-23T04:56:24;101191.45;;;11.71;65.68
31331;BME280;34067;39.548;-76.088;2022-09-23T04:58:52;101185.53;;;12.06;65.47
31331;BME280;34067;39.548;-76.088;2022-09-23T05:03:11;101199.71;;;12.52;64.26
31331;BME280;34067;39.548;-76.088;2022-09-23T05:05:39;101199.73;;;11.62;65.08
31331;BME280;34067;39.548;-76.088;2022-09-23T05:08:08;101198.95;;;12.00;64.57
31331;BME280;34067;39.548;-76.088;2022-09-23T05:10:35;101198.49;;;12.43;63.28
31331;BME280;34067;39.548;-76.088;2022-09-23T05:13:03;101199.22;;;11.89;64.06
31331;BME280;34067;39.548;-76.088;2022-09-23T05:15:31;101189.82;;;13.06;62.26
31331;BME280;34067;39.548;-76.088;2022-09-23T05:18:00;101197.22;;;12.60;62.76
31331;BME280;34067;39.548;-76.088;2022-09-23T05:20:28;101192.75;;;13.12;61.90
31331;BME280;34067;39.548;-76.088;2022-09-23T05:22:56;101196.00;;;12.19;62.48
31331;BME280;34067;39.548;-76.088;2022-09-23T05:25:24;101192.04;;;12.58;62.88
31331;BME280;34067;39.548;-76.088;2022-09-23T05:27:52;101188.46;;;12.80;61.11
31331;BME280;34067;39.548;-76.088;2022-09-23T05:30:20;101183.63;;;12.41;62.96
31331;BME280;34067;39.548;-76.088;2022-09-23T05:32:48;101194.43;;;11.77;63.59
31331;BME280;34067;39.548;-76.088;2022-09-23T05:35:16;101192.64;;;12.57;62.34
31331;BME280;34067;39.548;-76.088;2022-09-23T05:37:45;101197.84;;;12.52;62.64
31331;BME280;34067;39.548;-76.088;2022-09-23T05:40:12;101212.77;;;12.27;63.41
31331;BME280;34067;39.548;-76.088;2022-09-23T05:42:40;101197.81;;;12.22;63.43
31331;BME280;34067;39.548;-76.088;2022-09-23T05:45:09;101185.50;;;12.97;59.50
31331;BME280;34067;39.548;-76.088;2022-09-23T05:47:37;101209.28;;;12.34;63.11
31331;BME280;34067;39.548;-76.088;2022-09-23T05:50:05;101197.26;;;13.06;59.16
31331;BME280;34067;39.548;-76.088;2022-09-23T05:52:33;101210.36;;;12.42;61.10
31331;BME280;34067;39.548;-76.088;2022-09-23T05:55:01;101199.26;;;12.49;61.96
31331;BME280;34067;39.548;-76.088;2022-09-23T05:57:30;101210.55;;;13.20;60.23
31331;BME280;34067;39.548;-76.088;2022-09-23T05:59:57;101214.52;;;12.45;58.40
31331;BME280;34067;39.548;-76.088;2022-09-23T06:02:25;101213.34;;;12.16;59.71
31331;BME280;34067;39.548;-76.088;2022-09-23T06:04:54;101200.20;;;11.85;58.78
31331;BME280;34067;39.548;-76.088;2022-09-23T06:07:22;101208.11;;;12.14;56.96
31331;BME280;34067;39.548;-76.088;2022-09-23T06:09:50;101214.57;;;11.90;59.34
31331;BME280;34067;39.548;-76.088;2022-09-23T06:12:19;101193.99;;;12.12;59.20
31331;BME280;34067;39.548;-76.088;2022-09-23T06:14:47;101195.18;;;11.78;57.07
31331;BME280;34067;39.548;-76.088;2022-09-23T06:17:15;101193.43;;;11.80;57.13
31331;BME280;34067;39.548;-76.088;2022-09-23T06:19:43;101177.71;;;11.60;72.87
31331;BME280;34067;39.548;-76.088;2022-09-23T06:22:11;101187.82;;;11.86;62.49
31331;BME280;34067;39.548;-76.088;2022-09-23T06:24:39;101181.54;;;11.52;59.84
31331;BME280;34067;39.548;-76.088;2022-09-23T06:27:08;101181.75;;;11.91;62.01
31331;BME280;34067;39.548;-76.088;2022-09-23T06:29:36;101177.39;;;11.25;70.33
31331;BME280;34067;39.548;-76.088;2022-09-23T06:32:05;101192.83;;;11.84;68.96
31331;BME280;34067;39.548;-76.088;2022-09-23T06:34:33;101175.96;;;11.86;68.62
31331;BME280;34067;39.548;-76.088;2022-09-23T06:37:01;101182.88;;;11.95;69.01
31331;BME280;34067;39.548;-76.088;2022-09-23T06:39:29;101189.04;;;11.25;61.56
31331;BME280;34067;39.548;-76.088;2022-09-23T06:41:57;101187.96;;;11.94;60.91
31331;BME280;34067;39.548;-76.088;2022-09-23T06:44:25;101195.79;;;11.63;70.42
31331;BME280;34067;39.548;-76.088;2022-09-23T06:46:53;101192.55;;;12.18;59.29
31331;BME280;34067;39.548;-76.088;2022-09-23T06:49:22;101185.45;;;12.17;67.40
31331;BME280;34067;39.548;-76.088;2022-09-23T06:51:50;101224.35;;;11.59;57.30
31331;BME280;34067;39.548;-76.088;2022-09-23T06:54:18;101194.74;;;11.38;60.16
31331;BME280;34067;39.548;-76.088;2022-09-23T06:56:46;101208.84;;;11.29;57.13
31331;BME280;34067;39.548;-76.088;2022-09-23T06:59:15;101185.65;;;11.53;56.64
31331;BME280;34067;39.548;-76.088;2022-09-23T07:01:42;101165.49;;;11.60;58.51
31331;BME280;34067;39.548;-76.088;2022-09-23T07:04:10;101204.96;;;11.41;56.17
31331;BME280;34067;39.548;-76.088;2022-09-23T07:06:38;101186.64;;;11.89;61.59
31331;BME280;34067;39.548;-76.088;2022-09-23T07:09:07;101203.41;;;11.09;55.77
31331;BME280;34067;39.548;-76.088;2022-09-23T07:11:36;101195.18;;;10.94;57.72
31331;BME280;34067;39.548;-76.088;2022-09-23T07:14:04;101195.99;;;11.48;58.17
31331;BME280;34067;39.548;-76.088;2022-09-23T07:16:32;101247.42;;;11.11;56.49
31331;BME280;34067;39.548;-76.088;2022-09-23T07:19:00;101213.15;;;10.43;54.81
31331;BME280;34067;39.548;-76.088;2022-09-23T07:21:28;101207.93;;;10.64;56.90
31331;BME280;34067;39.548;-76.088;2022-09-23T07:23:56;101226.04;;;10.50;57.17
31331;BME280;34067;39.548;-76.088;2022-09-23T07:26:24;101219.39;;;10.50;65.40
31331;BME280;34067;39.548;-76.088;2022-09-23T07:28:54;101223.57;;;10.74;61.29
31331;BME280;34067;39.548;-76.088;2022-09-23T07:31:22;101217.81;;;10.69;56.01
31331;BME280;34067;39.548;-76.088;2022-09-23T07:33:55;101226.31;;;10.23;61.18
31331;BME280;34067;39.548;-76.088;2022-09-23T07:36:24;101235.77;;;10.81;56.28
31331;BME280;34067;39.548;-76.088;2022-09-23T07:38:53;101226.63;;;11.00;57.43
31331;BME280;34067;39.548;-76.088;2022-09-23T07:41:21;101242.39;;;9.98;57.19
31331;BME280;34067;39.548;-76.088;2022-09-23T07:43:49;101230.73;;;10.42;64.44
31331;BME280;34067;39.548;-76.088;2022-09-23T07:46:17;101255.72;;;11.00;58.36
31331;BME280;34067;39.548;-76.088;2022-09-23T07:48:45;101230.91;;;10.57;71.60
31331;BME280;34067;39.548;-76.088;2022-09-23T07:51:17;101262.50;;;10.38;65.86
31331;BME280;34067;39.548;-76.088;2022-09-23T07:53:47;101276.25;;;10.99;73.89
31331;BME280;34067;39.548;-76.088;2022-09-23T07:56:15;101223.59;;;10.43;72.41
31331;BME280;34067;39.548;-76.088;2022-09-23T07:58:42;101229.19;;;10.50;72.42
31331;BME280;34067;39.548;-76.088;2022-09-23T08:01:12;101263.92;;;9.81;68.00
31331;BME280;34067;39.548;-76.088;2022-09-23T08:03:39;101256.73;;;10.14;70.49
31331;BME280;34067;39.548;-76.088;2022-09-23T08:06:10;101245.20;;;10.25;68.68
31331;BME280;34067;39.548;-76.088;2022-09-23T08:08:40;101259.51;;;9.89;65.65
31331;BME280;34067;39.548;-76.088;2022-09-23T08:11:10;101250.33;;;9.52;66.35
31331;BME280;34067;39.548;-76.088;2022-09-23T08:13:38;101258.16;;;10.03;61.17
31331;BME280;34067;39.548;-76.088;2022-09-23T08:16:06;101263.39;;;9.81;62.16
31331;BME280;34067;39.548;-76.088;2022-09-23T08:18:34;101262.36;;;10.55;68.63
31331;BME280;34067;39.548;-76.088;2022-09-23T08:21:02;101268.95;;;10.49;67.64
31331;BME280;34067;39.548;-76.088;2022-09-23T08:23:30;101268.22;;;10.99;62.18
31331;BME280;34067;39.548;-76.088;2022-09-23T08:25:59;101271.21;;;11.28;59.01
31331;BME280;34067;39.548;-76.088;2022-09-23T08:28:27;101265.15;;;10.43;68.02
31331;BME280;34067;39.548;-76.088;2022-09-23T08:30:55;101274.20;;;10.50;61.58
31331;BME280;34067;39.548;-76.088;2022-09-23T08:33:23;101272.09;;;9.90;65.57
31331;BME280;34067;39.548;-76.088;2022-09-23T08:35:52;101301.07;;;10.49;58.16
31331;BME280;34067;39.548;-76.088;2022-09-23T08:38:25;101281.06;;;9.83;58.60
31331;BME280;34067;39.548;-76.088;2022-09-23T08:41:02;101322.85;;;9.71;58.99
31331;BME280;34067;39.548;-76.088;2022-09-23T08:43:33;101284.10;;;10.00;60.99
31331;BME280;34067;39.548;-76.088;2022-09-23T08:46:04;101312.07;;;9.96;58.56
31331;BME280;34067;39.548;-76.088;2022-09-23T08:48:37;101279.07;;;10.05;65.15
31331;BME280;34067;39.548;-76.088;2022-09-23T08:51:13;101334.30;;;9.81;62.34
31331;BME280;34067;39.548;-76.088;2022-09-23T08:53:41;101317.89;;;10.15;60.45
31331;BME280;34067;39.548;-76.088;2022-09-23T08:56:14;101316.31;;;9.58;67.25
31331;BME280;34067;39.548;-76.088;2022-09-23T08:58:54;101307.43;;;9.55;68.95
31331;BME280;34067;39.548;-76.088;2022-09-23T09:01:33;101313.30;;;8.74;69.19
31331;BME280;34067;39.548;-76.088;2022-09-23T09:04:15;101322.35;;;9.29;70.61
31331;BME280;34067;39.548;-76.088;2022-09-23T09:06:48;101323.28;;;8.78;68.98
31331;BME280;34067;39.548;-76.088;2022-09-23T09:09:22;101325.69;;;10.09;72.85
31331;BME280;34067;39.548;-76.088;2022-09-23T09:11:57;101334.62;;;9.80;69.89
31331;BME280;34067;39.548;-76.088;2022-09-23T09:14:35;101340.43;;;9.08;72.24
31331;BME280;34067;39.548;-76.088;2022-09-23T09:17:06;101328.33;;;8.47;68.27
31331;BME280;34067;39.548;-76.088;2022-09-23T09:19:52;101336.14;;;9.60;77.65
31331;BME280;34067;39.548;-76.088;2022-09-23T09:22:35;101330.24;;;8.95;80.00
31331;BME280;34067;39.548;-76.088;2022-09-23T09:25:20;101357.61;;;9.36;71.19
31331;BME280;34067;39.548;-76.088;2022-09-23T09:27:51;101378.42;;;9.34;77.47
31331;BME280;34067;39.548;-76.088;2022-09-23T09:30:20;101370.16;;;9.40;74.16
31331;BME280;34067;39.548;-76.088;2022-09-23T09:32:54;101367.05;;;9.62;76.53
31331;BME280;34067;39.548;-76.088;2022-09-23T09:35:31;101363.57;;;10.01;73.29
31331;BME280;34067;39.548;-76.088;2022-09-23T09:38:02;101365.91;;;9.06;79.57
31331;BME280;34067;39.548;-76.088;2022-09-23T09:40:30;101388.20;;;9.16;78.66
31331;BME280;34067;39.548;-76.088;2022-09-23T09:42:58;101388.91;;;9.53;68.85
31331;BME280;34067;39.548;-76.088;2022-09-23T09:45:32;101384.29;;;9.10;70.09
31331;BME280;34067;39.548;-76.088;2022-09-23T09:48:09;101413.52;;;8.61;68.12
31331;BME280;34067;39.548;-76.088;2022-09-23T09:50:43;101421.18;;;8.97;68.15
31331;BME280;34067;39.548;-76.088;2022-09-23T09:53:20;101426.85;;;9.29;67.44
31331;BME280;34067;39.548;-76.088;2022-09-23T09:55:57;101409.55;;;9.28;72.35
31331;BME280;34067;39.548;-76.088;2022-09-23T09:58:27;101395.13;;;9.14;74.05
31331;BME280;34067;39.548;-76.088;2022-09-23T10:01:00;101431.84;;;9.58;66.63
31331;BME280;34067;39.548;-76.088;2022-09-23T10:03:32;101425.62;;;8.95;64.75
31331;BME280;34067;39.548;-76.088;2022-09-23T10:06:15;101425.87;;;8.98;66.78
31331;BME280;34067;39.548;-76.088;2022-09-23T10:09:02;101440.04;;;9.06;63.27
31331;BME280;34067;39.548;-76.088;2022-09-23T10:11:31;101449.86;;;9.27;64.81
31331;BME280;34067;39.548;-76.088;2022-09-23T10:14:04;101426.63;;;8.44;70.18
31331;BME280;34067;39.548;-76.088;2022-09-23T10:16:33;101423.61;;;9.23;65.53
31331;BME280;34067;39.548;-76.088;2022-09-23T10:19:02;101435.28;;;8.79;64.46
31331;BME280;34067;39.548;-76.088;2022-09-23T10:21:38;101433.83;;;8.61;72.87
31331;BME280;34067;39.548;-76.088;2022-09-23T10:24:07;101434.20;;;9.24;73.82
31331;BME280;34067;39.548;-76.088;2022-09-23T10:26:53;101437.70;;;8.55;68.21
31331;BME280;34067;39.548;-76.088;2022-09-23T10:29:28;101445.49;;;8.86;73.01
31331;BME280;34067;39.548;-76.088;2022-09-23T10:32:31;101455.63;;;8.96;78.39
31331;BME280;34067;39.548;-76.088;2022-09-23T10:35:10;101457.95;;;8.72;75.43
31331;BME280;34067;39.548;-76.088;2022-09-23T10:37:41;101452.01;;;8.68;76.27
31331;BME280;34067;39.548;-76.088;2022-09-23T10:40:17;101458.54;;;8.53;74.73
31331;BME280;34067;39.548;-76.088;2022-09-23T10:42:55;101453.20;;;8.54;74.90
31331;BME280;34067;39.548;-76.088;2022-09-23T10:45:26;101469.32;;;8.70;70.17
31331;BME280;34067;39.548;-76.088;2022-09-23T10:48:04;101502.58;;;8.51;70.26
31331;BME280;34067;39.548;-76.088;2022-09-23T10:50:41;101500.43;;;8.69;72.09
31331;BME280;34067;39.548;-76.088;2022-09-23T10:53:18;101521.46;;;8.11;73.36
31331;BME280;34067;39.548;-76.088;2022-09-23T10:56:07;101518.22;;;9.48;72.90
31331;BME280;34067;39.548;-76.088;2022-09-23T10:58:51;101474.56;;;8.63;67.99
31331;BME280;34067;39.548;-76.088;2022-09-23T11:01:31;101471.83;;;9.06;69.27
31331;BME280;34067;39.548;-76.088;2022-09-23T11:04:18;101481.85;;;8.70;64.00
31331;BME280;34067;39.548;-76.088;2022-09-23T11:07:01;101484.69;;;8.92;63.81
31331;BME280;34067;39.548;-76.088;2022-09-23T11:09:41;101514.84;;;9.46;79.21
31331;BME280;34067;39.548;-76.088;2022-09-23T11:12:21;101521.77;;;9.47;71.71
31331;BME280;34067;39.548;-76.088;2022-09-23T11:15:08;101501.74;;;8.37;75.60
31331;BME280;34067;39.548;-76.088;2022-09-23T11:18:01;101524.73;;;9.47;71.94
31331;BME280;34067;39.548;-76.088;2022-09-23T11:20:40;101497.96;;;8.94;69.27
31331;BME280;34067;39.548;-76.088;2022-09-23T11:23:30;101528.79;;;8.57;66.58
31331;BME280;34067;39.548;-76.088;2022-09-23T11:26:11;101523.33;;;9.23;68.73
31331;BME280;34067;39.548;-76.088;2022-09-23T11:29:07;101516.13;;;8.68;64.31
31331;BME280;34067;39.548;-76.088;2022-09-23T11:31:46;101518.05;;;9.00;68.48
31331;BME280;34067;39.548;-76.088;2022-09-23T11:34:34;101522.62;;;8.04;70.50
31331;BME280;34067;39.548;-76.088;2022-09-23T11:37:10;101534.25;;;8.48;76.40
31331;BME280;34067;39.548;-76.088;2022-09-23T11:39:44;101563.19;;;8.53;63.39
31331;BME280;34067;39.548;-76.088;2022-09-23T11:42:20;101528.78;;;9.20;64.00
31331;BME280;34067;39.548;-76.088;2022-09-23T11:44:54;101536.03;;;8.40;63.03
31331;BME280;34067;39.548;-76.088;2022-09-23T11:47:29;101539.29;;;8.24;69.46
31331;BME280;34067;39.548;-76.088;2022-09-23T11:50:02;101551.25;;;8.27;65.01
31331;BME280;34067;39.548;-76.088;2022-09-23T11:52:35;101537.60;;;8.79;70.67
31331;BME280;34067;39.548;-76.088;2022-09-23T11:55:10;101549.09;;;8.75;68.31
31331;BME280;34067;39.548;-76.088;2022-09-23T11:57:44;101542.86;;;7.84;66.01
31331;BME280;34067;39.548;-76.088;2022-09-23T12:00:17;101544.01;;;8.06;68.28
31331;BME280;34067;39.548;-76.088;2022-09-23T12:02:57;101549.31;;;8.57;69.19
31331;BME280;34067;39.548;-76.088;2022-09-23T12:05:33;101567.47;;;8.44;64.18
31331;BME280;34067;39.548;-76.088;2022-09-23T12:08:09;101591.72;;;8.44;64.96
31331;BME280;34067;39.548;-76.088;2022-09-23T12:10:47;101563.05;;;8.60;66.19
31331;BME280;34067;39.548;-76.088;2022-09-23T12:13:25;101532.89;;;8.08;73.45
31331;BME280;34067;39.548;-76.088;2022-09-23T12:16:12;101549.23;;;9.09;78.60
31331;BME280;34067;39.548;-76.088;2022-09-23T12:18:54;101574.45;;;8.49;64.65
31331;BME280;34067;39.548;-76.088;2022-09-23T12:21:40;101569.68;;;8.56;83.35
31331;BME280;34067;39.548;-76.088;2022-09-23T12:24:26;101562.94;;;8.43;75.16
31331;BME280;34067;39.548;-76.088;2022-09-23T12:27:05;101574.07;;;9.22;67.63
31331;BME280;34067;39.548;-76.088;2022-09-23T12:29:36;101581.37;;;8.63;69.73
31331;BME280;34067;39.548;-76.088;2022-09-23T12:32:04;101552.97;;;8.45;76.04
31331;BME280;34067;39.548;-76.088;2022-09-23T12:34:39;101576.11;;;9.02;67.75
31331;BME280;34067;39.548;-76.088;2022-09-23T12:37:07;101576.90;;;8.82;62.11
31331;BME280;34067;39.548;-76.088;2022-09-23T12:39:37;101572.97;;;8.62;62.44
31331;BME280;34067;39.548;-76.088;2022-09-23T12:42:13;101608.61;;;9.04;67.06
31331;BME280;34067;39.548;-76.088;2022-09-23T12:44:44;101584.13;;;9.44;77.56
31331;BME280;34067;39.548;-76.088;2022-09-23T12:47:45;101587.04;;;8.36;65.23
31331;BME280;34067;39.548;-76.088;2022-09-23T12:51:15;101588.19;;;7.71;61.85
31331;BME280;34067;39.548;-76.088;2022-09-23T12:53:54;101566.53;;;8.53;60.58
31331;BME280;34067;39.548;-76.088;2022-09-23T12:56:25;101570.26;;;9.34;71.04
31331;BME280;34067;39.548;-76.088;2022-09-23T12:59:09;101556.52;;;8.84;70.58
31331;BME280;34067;39.548;-76.088;2022-09-23T13:01:38;101595.40;;;9.46;72.51
31331;BME280;34067;39.548;-76.088;2022-09-23T13:04:28;101580.54;;;8.58;60.79